Time;durP1;ratioP1;P1;durP2;ratioP2;P2;SDS_P1;SDS_P2;PMS_P1;PMS_P2;Temp;Humidity;BMP_temperature;BMP_pressure;BME280_temperature;BME280_humidity;BME280_pressure;Samples;Min_cycle;Max_cycle;Signal;HPM_P1;HPM_P2
2023/09/17 00:00:11;;;;;;;;;;;23.30;1.00;;;;;;4936926;29;19958;-61
2023/09/17 00:02:38;;;;;;;;;;;23.30;1.00;;;;;;4936762;29;19931;-61
2023/09/17 00:05:05;;;;;;;;;;;23.20;1.00;;;;;;4936846;29;19981;-59
2023/09/17 00:07:32;;;;;;;;;;;23.20;1.00;;;;;;4936620;29;20271;-61
2023/09/17 00:09:59;;;;;;;;;;;23.20;1.00;;;;;;4936648;29;20280;-61
2023/09/17 00:12:25;;;;;;;;;;;23.20;1.00;;;;;;4936850;29;19982;-61
2023/09/17 00:14:52;;;;;;;;;;;23.20;1.00;;;;;;4936595;29;19926;-61
2023/09/17 00:17:19;;;;;;;;;;;23.20;1.00;;;;;;4936254;29;20018;-58
2023/09/17 00:19:46;;;;;;;;;;;23.20;1.00;;;;;;4936468;29;19927;-60
2023/09/17 00:22:14;;;;;;;;;;;23.20;1.00;;;;;;4936445;29;19938;-61
2023/09/17 00:24:41;;;;;;;;;;;23.20;1.00;;;;;;4936532;29;19927;-61
2023/09/17 00:27:08;;;;;;;;;;;23.20;1.00;;;;;;4936128;29;19930;-60
2023/09/17 00:29:36;;;;;;;;;;;23.20;1.00;;;;;;4936263;29;19981;-61
2023/09/17 00:32:03;;;;;;;;;;;23.20;1.00;;;;;;4934913;29;20466;-61
2023/09/17 00:34:30;;;;;;;;;;;23.20;1.00;;;;;;4948027;29;20276;-61
2023/09/17 00:36:57;;;;;;;;;;;23.20;1.00;;;;;;4933119;29;20403;-61
2023/09/17 00:39:23;;;;;;;;;;;23.20;1.00;;;;;;4936397;29;19933;-61
2023/09/17 00:41:52;;;;;;;;;;;23.20;1.00;;;;;;4950705;29;19930;-61
2023/09/17 00:44:18;;;;;;;;;;;23.20;1.00;;;;;;4934897;29;20026;-61
2023/09/17 00:46:46;;;;;;;;;;;23.20;1.00;;;;;;4950512;29;20025;-61
2023/09/17 00:49:14;;;;;;;;;;;23.20;1.00;;;;;;4934687;29;19930;-61
2023/09/17 00:51:41;;;;;;;;;;;23.20;1.00;;;;;;4950757;29;19926;-61
2023/09/17 00:54:09;;;;;;;;;;;23.10;1.00;;;;;;4934598;29;19926;-61
2023/09/17 00:56:37;;;;;;;;;;;23.10;1.00;;;;;;4934420;29;19926;-61
2023/09/17 00:59:06;;;;;;;;;;;23.10;1.00;;;;;;4935657;29;19931;-61
2023/09/17 01:01:33;;;;;;;;;;;23.10;1.00;;;;;;4934492;29;19969;-61
2023/09/17 01:04:00;;;;;;;;;;;23.10;1.00;;;;;;4934483;29;19927;-61
2023/09/17 01:06:28;;;;;;;;;;;23.10;1.00;;;;;;4934479;29;19931;-61
2023/09/17 01:08:55;;;;;;;;;;;23.10;1.00;;;;;;4934188;29;19927;-61
2023/09/17 01:11:22;;;;;;;;;;;23.10;1.00;;;;;;4950157;29;19930;-61
2023/09/17 01:14:07;;;;;;;;;;;23.10;1.00;;;;;;4950196;29;20059;-61
2023/09/17 01:16:34;;;;;;;;;;;23.10;1.00;;;;;;4935301;29;20366;-61
2023/09/17 01:19:03;;;;;;;;;;;23.10;1.00;;;;;;4933977;29;19933;-61
2023/09/17 01:21:48;;;;;;;;;;;23.10;1.00;;;;;;4950239;29;19973;-61
2023/09/17 01:24:15;;;;;;;;;;;23.10;1.00;;;;;;4926710;29;19973;-61
2023/09/17 01:26:44;;;;;;;;;;;23.10;1.00;;;;;;4935240;29;19970;-61
2023/09/17 01:29:13;;;;;;;;;;;23.10;1.00;;;;;;4949779;29;19974;-61
2023/09/17 01:31:40;;;;;;;;;;;23.10;1.00;;;;;;4935302;29;20339;-61
2023/09/17 01:34:07;;;;;;;;;;;23.10;1.00;;;;;;4949988;29;20017;-61
2023/09/17 01:36:39;;;;;;;;;;;23.10;1.00;;;;;;4935110;29;19962;-61
2023/09/17 01:39:11;;;;;;;;;;;23.10;1.00;;;;;;4934943;29;19931;-60
2023/09/17 01:41:39;;;;;;;;;;;23.10;1.00;;;;;;4934095;29;19927;-61
2023/09/17 01:44:07;;;;;;;;;;;23.10;1.00;;;;;;4949777;29;19930;-61
2023/09/17 01:46:35;;;;;;;;;;;23.10;1.00;;;;;;4934835;29;19966;-60
2023/09/17 01:49:03;;;;;;;;;;;23.00;1.00;;;;;;4949639;29;19938;-61
2023/09/17 01:51:31;;;;;;;;;;;23.10;1.00;;;;;;4949305;28;19927;-61
2023/09/17 01:53:58;;;;;;;;;;;23.10;1.00;;;;;;4933784;29;19953;-61
2023/09/17 01:56:26;;;;;;;;;;;23.10;1.00;;;;;;4933674;29;19958;-61
2023/09/17 01:58:53;;;;;;;;;;;23.00;1.00;;;;;;4934852;29;19927;-61
2023/09/17 02:01:20;;;;;;;;;;;23.10;1.00;;;;;;4949780;29;20386;-61
2023/09/17 02:03:48;;;;;;;;;;;23.10;1.00;;;;;;4934963;29;20383;-61
2023/09/17 02:06:16;;;;;;;;;;;23.00;1.00;;;;;;4949498;29;19927;-61
2023/09/17 02:08:42;;;;;;;;;;;23.00;1.00;;;;;;4935261;29;19951;-61
2023/09/17 02:11:09;;;;;;;;;;;23.00;1.00;;;;;;4938536;29;19992;-61
2023/09/17 02:13:36;;;;;;;;;;;23.00;1.00;;;;;;4949888;29;20362;-61
2023/09/17 02:16:03;;;;;;;;;;;23.00;1.00;;;;;;4934660;29;19930;-61
2023/09/17 02:18:29;;;;;;;;;;;23.00;1.00;;;;;;4949215;29;19927;-61
2023/09/17 02:20:56;;;;;;;;;;;23.00;1.00;;;;;;4949490;29;19969;-61
2023/09/17 02:23:23;;;;;;;;;;;23.00;1.00;;;;;;4949550;29;19958;-61
2023/09/17 02:25:50;;;;;;;;;;;23.00;1.00;;;;;;4933499;29;19955;-60
2023/09/17 02:28:17;;;;;;;;;;;23.00;1.00;;;;;;4933127;29;19926;-61
2023/09/17 02:30:44;;;;;;;;;;;23.00;1.00;;;;;;4946280;29;20202;-61
2023/09/17 02:33:11;;;;;;;;;;;23.00;1.00;;;;;;4924713;29;19927;-61
2023/09/17 02:35:38;;;;;;;;;;;23.00;1.00;;;;;;4949353;29;20446;-59
2023/09/17 02:38:04;;;;;;;;;;;23.00;1.00;;;;;;4934263;29;19968;-60
2023/09/17 02:40:31;;;;;;;;;;;23.00;1.00;;;;;;4934724;29;19952;-59
2023/09/17 02:42:58;;;;;;;;;;;23.00;1.00;;;;;;4949163;29;20043;-57
2023/09/17 02:45:25;;;;;;;;;;;23.00;1.00;;;;;;4949456;29;19931;-61
2023/09/17 02:47:52;;;;;;;;;;;23.00;1.00;;;;;;4933119;29;19982;-61
2023/09/17 02:50:19;;;;;;;;;;;23.00;1.00;;;;;;4934637;29;19926;-60
2023/09/17 02:52:46;;;;;;;;;;;23.00;1.00;;;;;;4934622;29;19927;-60
2023/09/17 02:55:13;;;;;;;;;;;23.00;1.00;;;;;;4949113;29;19934;-60
2023/09/17 02:57:40;;;;;;;;;;;23.00;1.00;;;;;;4948800;29;20391;-61
2023/09/17 03:00:13;;;;;;;;;;;23.00;1.00;;;;;;4949161;29;19970;-60
2023/09/17 03:02:40;;;;;;;;;;;23.00;1.00;;;;;;4934340;29;19926;-58
2023/09/17 03:05:10;;;;;;;;;;;23.00;1.00;;;;;;4936798;29;19927;-60
2023/09/17 03:07:38;;;;;;;;;;;23.00;1.00;;;;;;4936360;29;19933;-59
2023/09/17 03:10:07;;;;;;;;;;;23.00;1.00;;;;;;4936344;29;19934;-60
2023/09/17 03:12:34;;;;;;;;;;;23.00;1.00;;;;;;4921039;29;19930;-60
2023/09/17 03:15:02;;;;;;;;;;;23.00;1.00;;;;;;4936362;29;19934;-60
2023/09/17 03:17:29;;;;;;;;;;;22.90;1.00;;;;;;4952152;29;19926;-61
2023/09/17 03:19:56;;;;;;;;;;;22.90;1.00;;;;;;4952631;29;19933;-60
2023/09/17 03:22:22;;;;;;;;;;;22.90;1.00;;;;;;4952261;29;20021;-60
2023/09/17 03:24:50;;;;;;;;;;;23.00;1.00;;;;;;4952371;29;19930;-60
2023/09/17 03:27:33;;;;;;;;;;;23.00;1.00;;;;;;4936130;29;19982;-60
2023/09/17 03:30:04;;;;;;;;;;;22.90;1.00;;;;;;4952018;29;19927;-61
2023/09/17 03:32:31;;;;;;;;;;;22.90;1.00;;;;;;4938488;29;20025;-60
2023/09/17 03:35:00;;;;;;;;;;;22.90;1.00;;;;;;4935964;29;19926;-60
2023/09/17 03:37:27;;;;;;;;;;;22.90;1.00;;;;;;4919144;29;20351;-60
2023/09/17 03:40:14;;;;;;;;;;;22.90;1.00;;;;;;4925421;29;19966;-60
2023/09/17 03:42:43;;;;;;;;;;;22.90;1.00;;;;;;4936218;29;19927;-60
2023/09/17 03:45:13;;;;;;;;;;;22.90;1.00;;;;;;4936249;29;19949;-61
2023/09/17 03:47:41;;;;;;;;;;;22.90;1.00;;;;;;4951912;29;19986;-61
2023/09/17 03:50:08;;;;;;;;;;;22.90;1.00;;;;;;4935894;29;19952;-59
2023/09/17 03:52:36;;;;;;;;;;;22.90;1.00;;;;;;4937249;29;19931;-60
2023/09/17 03:55:07;;;;;;;;;;;22.90;1.00;;;;;;4937317;29;19962;-60
2023/09/17 03:57:36;;;;;;;;;;;22.90;1.00;;;;;;4951777;29;19958;-61
2023/09/17 04:00:07;;;;;;;;;;;22.90;1.00;;;;;;4935787;29;20442;-60
2023/09/17 04:02:43;;;;;;;;;;;22.90;1.00;;;;;;4936060;29;20394;-59
2023/09/17 04:05:12;;;;;;;;;;;22.90;1.00;;;;;;4932454;29;19927;-60
2023/09/17 04:07:43;;;;;;;;;;;22.90;1.00;;;;;;4935399;29;20382;-59
2023/09/17 04:10:11;;;;;;;;;;;22.90;1.00;;;;;;4935664;29;19927;-60
2023/09/17 04:12:38;;;;;;;;;;;22.90;1.00;;;;;;4935680;29;19927;-61
2023/09/17 04:15:10;;;;;;;;;;;22.90;1.00;;;;;;4935184;29;20073;-60
2023/09/17 04:17:37;;;;;;;;;;;22.90;1.00;;;;;;4936681;29;19954;-59
2023/09/17 04:20:09;;;;;;;;;;;22.90;1.00;;;;;;4951343;29;19926;-60
2023/09/17 04:22:36;;;;;;;;;;;22.90;1.00;;;;;;4935546;29;20017;-61
2023/09/17 04:25:06;;;;;;;;;;;22.90;1.00;;;;;;4951378;29;20393;-60
2023/09/17 04:27:33;;;;;;;;;;;22.90;1.00;;;;;;4936513;29;19958;-60
2023/09/17 04:30:00;;;;;;;;;;;22.90;1.00;;;;;;4951378;29;20026;-60
2023/09/17 04:32:27;;;;;;;;;;;22.80;1.00;;;;;;4951302;29;20431;-59
2023/09/17 04:34:54;;;;;;;;;;;22.80;1.00;;;;;;4951279;29;20371;-58
2023/09/17 04:37:21;;;;;;;;;;;22.80;1.00;;;;;;4950892;29;19930;-61
2023/09/17 04:39:49;;;;;;;;;;;22.80;1.00;;;;;;4935206;29;19927;-60
2023/09/17 04:42:17;;;;;;;;;;;22.80;1.00;;;;;;4950973;29;19980;-60
2023/09/17 04:44:44;;;;;;;;;;;22.80;1.00;;;;;;4951009;29;20354;-60
2023/09/17 04:47:11;;;;;;;;;;;22.80;1.00;;;;;;4950672;29;19927;-60
2023/09/17 04:49:39;;;;;;;;;;;22.80;1.00;;;;;;4951071;29;20286;-59
2023/09/17 04:52:06;;;;;;;;;;;22.80;1.00;;;;;;4949666;29;19958;-60
2023/09/17 04:54:33;;;;;;;;;;;22.80;1.00;;;;;;4950726;29;20390;-58
2023/09/17 04:57:00;;;;;;;;;;;22.80;1.00;;;;;;4950514;29;20026;-60
2023/09/17 04:59:28;;;;;;;;;;;22.80;1.00;;;;;;4950713;29;20462;-60
2023/09/17 05:01:55;;;;;;;;;;;22.80;1.00;;;;;;4950822;29;19982;-60
2023/09/17 05:04:24;;;;;;;;;;;22.80;1.00;;;;;;4927118;29;20310;-60
2023/09/17 05:06:51;;;;;;;;;;;22.80;1.00;;;;;;4943561;29;20366;-59
2023/09/17 05:09:18;;;;;;;;;;;22.80;1.00;;;;;;4918686;29;19927;-59
2023/09/17 05:11:45;;;;;;;;;;;22.80;1.00;;;;;;4935729;29;19930;-58
2023/09/17 05:14:12;;;;;;;;;;;22.80;1.00;;;;;;4950138;29;20426;-59
2023/09/17 05:16:39;;;;;;;;;;;22.80;1.00;;;;;;4950004;29;20443;-60
2023/09/17 05:19:06;;;;;;;;;;;22.80;1.00;;;;;;4938396;29;19976;-60
2023/09/17 05:21:33;;;;;;;;;;;22.80;1.00;;;;;;4950095;29;19933;-60
2023/09/17 05:24:00;;;;;;;;;;;22.80;1.00;;;;;;4950344;29;20387;-60
2023/09/17 05:26:27;;;;;;;;;;;22.80;1.00;;;;;;4933005;29;19974;-60
2023/09/17 05:28:56;;;;;;;;;;;22.80;1.00;;;;;;4949793;29;19930;-61
2023/09/17 05:31:23;;;;;;;;;;;22.80;1.00;;;;;;4949882;29;20386;-61
2023/09/17 05:33:50;;;;;;;;;;;22.80;1.00;;;;;;4950014;29;19933;-60
2023/09/17 05:39:08;;;;;;;;;;;22.80;1.00;;;;;;4964033;28;19958;-58
2023/09/17 05:41:37;;;;;;;;;;;22.80;1.00;;;;;;4973690;28;20416;-60
2023/09/17 05:44:05;;;;;;;;;;;22.80;1.00;;;;;;4972029;28;19933;-59
2023/09/17 05:46:32;;;;;;;;;;;22.80;1.00;;;;;;4964821;28;19989;-60
2023/09/17 05:48:58;;;;;;;;;;;22.80;1.00;;;;;;4951922;29;19933;-59
2023/09/17 05:51:26;;;;;;;;;;;22.80;1.00;;;;;;4951942;29;19988;-60
2023/09/17 05:53:53;;;;;;;;;;;22.80;1.00;;;;;;4953002;29;19995;-59
2023/09/17 05:56:20;;;;;;;;;;;22.80;1.00;;;;;;4952538;28;19926;-60
2023/09/17 05:58:47;;;;;;;;;;;22.70;1.00;;;;;;4952248;29;19930;-58
2023/09/17 06:01:14;;;;;;;;;;;22.70;1.00;;;;;;4952889;29;20249;-60
2023/09/17 06:03:41;;;;;;;;;;;22.70;1.00;;;;;;4952720;29;19937;-60
2023/09/17 06:06:08;;;;;;;;;;;22.70;1.00;;;;;;4952801;28;19938;-60
2023/09/17 06:08:35;;;;;;;;;;;22.70;1.00;;;;;;4952367;29;19981;-60
2023/09/17 06:11:01;;;;;;;;;;;22.70;1.00;;;;;;4952874;29;20379;-59
2023/09/17 06:13:28;;;;;;;;;;;22.70;1.00;;;;;;4952623;29;19978;-60
2023/09/17 06:15:55;;;;;;;;;;;22.70;1.00;;;;;;4952551;28;19930;-58
2023/09/17 06:18:22;;;;;;;;;;;22.70;1.00;;;;;;4943477;29;20043;-60
2023/09/17 06:20:50;;;;;;;;;;;22.70;1.00;;;;;;4944659;29;19985;-60
2023/09/17 06:23:17;;;;;;;;;;;22.70;1.00;;;;;;4953813;29;20024;-59
2023/09/17 06:25:43;;;;;;;;;;;22.70;1.00;;;;;;4952514;29;19932;-60
2023/09/17 06:28:10;;;;;;;;;;;22.70;1.00;;;;;;4934776;29;19927;-60
2023/09/17 06:30:37;;;;;;;;;;;22.70;1.00;;;;;;4935878;29;19927;-60
2023/09/17 06:33:04;;;;;;;;;;;22.70;1.00;;;;;;4938083;29;20010;-59
2023/09/17 06:35:33;;;;;;;;;;;22.70;1.00;;;;;;4952599;29;19934;-60
2023/09/17 06:38:01;;;;;;;;;;;22.60;1.00;;;;;;4943379;28;19930;-58
2023/09/17 06:40:27;;;;;;;;;;;22.60;1.00;;;;;;4954715;29;19933;-59
2023/09/17 06:42:54;;;;;;;;;;;22.60;1.00;;;;;;4947435;29;20018;-58
2023/09/17 06:45:22;;;;;;;;;;;22.60;1.00;;;;;;4956259;29;19981;-58
2023/09/17 06:47:49;;;;;;;;;;;22.60;1.00;;;;;;4957073;28;19937;-60
2023/09/17 06:50:16;;;;;;;;;;;22.60;1.00;;;;;;4957239;28;20408;-59
2023/09/17 06:52:42;;;;;;;;;;;22.60;1.00;;;;;;4949445;29;19930;-58
2023/09/17 06:55:09;;;;;;;;;;;22.60;1.00;;;;;;4957244;29;19926;-55
2023/09/17 06:57:36;;;;;;;;;;;22.60;1.00;;;;;;4957186;28;19973;-58
2023/09/17 07:00:06;;;;;;;;;;;22.60;1.00;;;;;;4957196;28;19927;-58
2023/09/17 07:02:34;;;;;;;;;;;22.60;1.00;;;;;;4957228;28;19926;-59
2023/09/17 07:05:03;;;;;;;;;;;22.60;1.00;;;;;;4957031;29;19927;-58
2023/09/17 07:07:30;;;;;;;;;;;22.60;1.00;;;;;;4952999;28;19926;-59
2023/09/17 07:09:57;;;;;;;;;;;22.60;1.00;;;;;;4954690;29;20041;-59
2023/09/17 07:12:24;;;;;;;;;;;22.60;1.00;;;;;;4956099;29;19981;-59
2023/09/17 07:14:51;;;;;;;;;;;22.60;1.00;;;;;;4957250;29;19980;-58
2023/09/17 07:17:17;;;;;;;;;;;22.60;1.00;;;;;;4947389;28;20004;-57
2023/09/17 07:19:44;;;;;;;;;;;22.60;1.00;;;;;;4951408;29;19935;-59
2023/09/17 07:22:14;;;;;;;;;;;22.60;1.00;;;;;;4944723;29;20029;-56
2023/09/17 07:24:42;;;;;;;;;;;22.50;1.00;;;;;;4952956;29;19974;-54
2023/09/17 07:27:08;;;;;;;;;;;22.50;1.00;;;;;;4952861;28;19959;-56
2023/09/17 07:29:35;;;;;;;;;;;22.50;1.00;;;;;;4947020;28;20398;-57
2023/09/17 07:32:03;;;;;;;;;;;22.50;1.00;;;;;;4950323;29;20045;-58
2023/09/17 07:34:30;;;;;;;;;;;22.50;1.00;;;;;;4951673;29;19927;-58
2023/09/17 07:36:59;;;;;;;;;;;22.50;1.00;;;;;;4953415;28;20013;-56
2023/09/17 07:39:27;;;;;;;;;;;22.50;1.00;;;;;;4951015;29;19933;-59
2023/09/17 07:41:54;;;;;;;;;;;22.50;1.00;;;;;;4955637;28;20425;-58
2023/09/17 07:44:22;;;;;;;;;;;22.40;1.00;;;;;;4950034;29;19938;-59
2023/09/17 07:46:48;;;;;;;;;;;22.40;1.00;;;;;;4943701;29;20024;-59
2023/09/17 07:49:15;;;;;;;;;;;22.40;1.00;;;;;;4952956;28;19933;-60
2023/09/17 07:51:42;;;;;;;;;;;22.40;1.00;;;;;;4955211;29;19927;-60
2023/09/17 07:54:09;;;;;;;;;;;22.40;1.00;;;;;;4955735;29;19933;-60
2023/09/17 07:56:35;;;;;;;;;;;22.40;1.00;;;;;;4955156;28;20356;-57
2023/09/17 07:59:03;;;;;;;;;;;22.40;1.00;;;;;;4949848;29;20339;-57
2023/09/17 08:01:30;;;;;;;;;;;22.40;1.00;;;;;;4951957;29;19926;-59
2023/09/17 08:03:57;;;;;;;;;;;22.40;1.00;;;;;;4947447;29;19927;-59
2023/09/17 08:06:25;;;;;;;;;;;22.40;1.00;;;;;;4952073;28;19926;-58
2023/09/17 08:08:52;;;;;;;;;;;22.40;1.00;;;;;;4953942;28;19954;-58
2023/09/17 08:11:19;;;;;;;;;;;22.30;1.00;;;;;;4952680;29;20021;-58
2023/09/17 08:13:47;;;;;;;;;;;22.30;1.00;;;;;;4950878;29;19982;-57
2023/09/17 08:16:15;;;;;;;;;;;22.30;1.00;;;;;;4951100;28;19934;-52
2023/09/17 08:18:42;;;;;;;;;;;22.30;1.00;;;;;;4954184;29;19937;-58
2023/09/17 08:21:09;;;;;;;;;;;22.30;1.00;;;;;;4955317;28;19934;-59
2023/09/17 08:23:35;;;;;;;;;;;22.30;1.00;;;;;;4955268;29;20013;-58
2023/09/17 08:26:04;;;;;;;;;;;22.30;1.00;;;;;;4955244;28;19961;-58
2023/09/17 08:28:31;;;;;;;;;;;22.30;1.00;;;;;;4955008;29;19926;-58
2023/09/17 08:30:58;;;;;;;;;;;22.30;1.00;;;;;;4955173;29;19926;-58
2023/09/17 08:33:24;;;;;;;;;;;22.30;1.00;;;;;;4955303;28;20021;-57
2023/09/17 08:35:51;;;;;;;;;;;22.30;1.00;;;;;;4953340;28;19938;-59
2023/09/17 08:38:19;;;;;;;;;;;22.30;1.00;;;;;;4954682;29;20407;-59
2023/09/17 08:40:46;;;;;;;;;;;22.30;1.00;;;;;;4955305;29;19926;-58
2023/09/17 08:43:13;;;;;;;;;;;22.30;1.00;;;;;;4954811;29;19964;-57
2023/09/17 08:45:41;;;;;;;;;;;22.30;1.00;;;;;;4954617;29;20373;-67
2023/09/17 08:48:08;;;;;;;;;;;22.30;1.00;;;;;;5141285;23;19930;-57
2023/09/17 08:50:36;;;;;;;;;;;22.30;1.00;;;;;;4954780;29;19927;-59
2023/09/17 08:53:06;;;;;;;;;;;22.30;1.00;;;;;;4954809;29;19930;-58
2023/09/17 08:55:33;;;;;;;;;;;22.30;1.00;;;;;;4951963;29;19957;-57
2023/09/17 08:58:07;;;;;;;;;;;22.30;1.00;;;;;;4936766;29;20280;-58
2023/09/17 09:00:35;;;;;;;;;;;22.30;1.00;;;;;;4935354;29;20362;-59
2023/09/17 09:03:03;;;;;;;;;;;22.30;1.00;;;;;;4935319;29;19927;-59
2023/09/17 09:05:30;;;;;;;;;;;22.30;1.00;;;;;;4918224;29;19927;-60
2023/09/17 09:07:58;;;;;;;;;;;22.20;1.00;;;;;;4934048;29;19931;-58
2023/09/17 09:10:25;;;;;;;;;;;22.20;1.00;;;;;;4934681;29;20398;-59
2023/09/17 09:12:52;;;;;;;;;;;22.20;1.00;;;;;;4930889;29;19933;-60
2023/09/17 09:15:19;;;;;;;;;;;22.20;1.00;;;;;;4931221;29;19974;-58
2023/09/17 09:17:46;;;;;;;;;;;22.20;1.00;;;;;;4916094;29;20028;-59
2023/09/17 09:20:17;;;;;;;;;;;22.20;1.00;;;;;;4928654;29;19927;-58
2023/09/17 09:22:45;;;;;;;;;;;22.20;1.00;;;;;;4935655;29;19927;-59
2023/09/17 09:25:15;;;;;;;;;;;22.20;1.00;;;;;;4936899;29;19926;-58
2023/09/17 09:27:43;;;;;;;;;;;22.20;1.00;;;;;;4932585;29;19933;-59
2023/09/17 09:30:11;;;;;;;;;;;22.20;1.00;;;;;;4935028;29;20391;-58
2023/09/17 09:32:38;;;;;;;;;;;22.20;1.00;;;;;;4934478;29;19934;-59
2023/09/17 09:35:05;;;;;;;;;;;22.20;1.00;;;;;;4935358;29;19949;-60
2023/09/17 09:37:33;;;;;;;;;;;22.10;1.00;;;;;;4934617;29;20378;-58
2023/09/17 09:40:00;;;;;;;;;;;22.20;1.00;;;;;;4935258;29;19927;-59
2023/09/17 09:42:27;;;;;;;;;;;22.10;1.00;;;;;;4935285;29;20306;-59
2023/09/17 09:44:54;;;;;;;;;;;22.20;1.00;;;;;;4934939;29;19934;-57
2023/09/17 09:47:22;;;;;;;;;;;22.20;1.00;;;;;;4934493;29;20355;-56
2023/09/17 09:49:49;;;;;;;;;;;22.20;1.00;;;;;;4935144;29;19993;-59
2023/09/17 09:52:17;;;;;;;;;;;22.20;1.00;;;;;;4934992;29;20017;-57
2023/09/17 09:54:44;;;;;;;;;;;22.20;1.00;;;;;;4934743;29;19998;-57
2023/09/17 09:57:11;;;;;;;;;;;22.20;1.00;;;;;;4932985;29;19927;-59
2023/09/17 09:59:41;;;;;;;;;;;22.20;1.00;;;;;;4935054;29;20532;-57
2023/09/17 10:02:10;;;;;;;;;;;22.20;1.00;;;;;;4934908;29;20030;-59
2023/09/17 10:04:37;;;;;;;;;;;22.20;1.00;;;;;;4935108;29;19982;-59
2023/09/17 10:07:05;;;;;;;;;;;22.20;1.00;;;;;;4934633;29;19927;-58
2023/09/17 10:09:31;;;;;;;;;;;22.20;1.00;;;;;;4934971;29;19970;-59
2023/09/17 10:11:58;;;;;;;;;;;22.20;1.00;;;;;;4933575;29;20058;-60
2023/09/17 10:14:26;;;;;;;;;;;22.20;1.00;;;;;;4937957;29;20025;-59
2023/09/17 10:16:55;;;;;;;;;;;22.20;1.00;;;;;;4937184;29;19970;-59
2023/09/17 10:19:23;;;;;;;;;;;22.20;1.00;;;;;;4938551;29;20025;-59
2023/09/17 10:21:51;;;;;;;;;;;22.20;1.00;;;;;;4938567;29;19931;-59
2023/09/17 10:24:18;;;;;;;;;;;22.20;1.00;;;;;;4938454;29;19974;-58
2023/09/17 10:26:45;;;;;;;;;;;22.20;1.00;;;;;;4938146;29;20013;-60
2023/09/17 10:29:13;;;;;;;;;;;22.20;1.00;;;;;;4938975;29;19927;-60
2023/09/17 10:31:41;;;;;;;;;;;22.20;1.00;;;;;;4938789;29;20322;-60
2023/09/17 10:34:08;;;;;;;;;;;22.20;1.00;;;;;;4938515;29;19977;-58
2023/09/17 10:36:38;;;;;;;;;;;22.20;1.00;;;;;;4938126;29;19970;-59
2023/09/17 10:39:06;;;;;;;;;;;22.20;1.00;;;;;;4936969;29;19934;-58
2023/09/17 10:41:36;;;;;;;;;;;22.20;1.00;;;;;;4934429;29;20037;-59
2023/09/17 10:44:03;;;;;;;;;;;22.20;1.00;;;;;;4938047;29;19982;-59
2023/09/17 10:46:31;;;;;;;;;;;22.30;1.00;;;;;;4936967;29;19931;-58
2023/09/17 10:48:58;;;;;;;;;;;22.30;1.00;;;;;;4937499;29;19982;-57
2023/09/17 10:51:26;;;;;;;;;;;22.30;1.00;;;;;;4937857;29;20086;-57
2023/09/17 10:53:54;;;;;;;;;;;22.30;1.00;;;;;;4938064;29;19931;-58
2023/09/17 10:56:21;;;;;;;;;;;22.30;1.00;;;;;;4937716;29;19962;-59
2023/09/17 10:58:52;;;;;;;;;;;22.30;1.00;;;;;;4937619;29;19966;-60
2023/09/17 11:01:24;;;;;;;;;;;22.30;1.00;;;;;;4937892;29;20310;-58
2023/09/17 11:03:52;;;;;;;;;;;22.20;1.00;;;;;;4937772;29;19933;-59
2023/09/17 11:06:24;;;;;;;;;;;22.30;1.00;;;;;;4937804;29;19971;-60
2023/09/17 11:08:52;;;;;;;;;;;22.30;1.00;;;;;;4937463;29;19993;-59
2023/09/17 11:11:19;;;;;;;;;;;22.30;1.00;;;;;;4937807;29;20402;-60
2023/09/17 11:13:46;;;;;;;;;;;22.30;1.00;;;;;;4937508;29;20014;-60
2023/09/17 11:16:14;;;;;;;;;;;22.30;1.00;;;;;;4937625;29;19930;-58
2023/09/17 11:18:41;;;;;;;;;;;22.30;1.00;;;;;;4937595;29;20342;-60
2023/09/17 11:21:09;;;;;;;;;;;22.30;1.00;;;;;;4937329;29;20339;-58
2023/09/17 11:23:36;;;;;;;;;;;22.30;1.00;;;;;;4937543;29;19930;-59
2023/09/17 11:26:03;;;;;;;;;;;22.30;1.00;;;;;;4936290;29;19957;-60
2023/09/17 11:28:34;;;;;;;;;;;22.30;1.00;;;;;;4937116;29;19970;-60
2023/09/17 11:31:09;;;;;;;;;;;22.30;1.00;;;;;;4937378;29;19926;-58
2023/09/17 11:33:39;;;;;;;;;;;22.30;1.00;;;;;;4934126;29;19927;-60
2023/09/17 11:36:07;;;;;;;;;;;22.30;1.00;;;;;;4937101;29;19962;-59
2023/09/17 11:38:34;;;;;;;;;;;22.30;1.00;;;;;;4937075;29;20407;-59
2023/09/17 11:41:02;;;;;;;;;;;22.30;1.00;;;;;;4937337;29;19926;-60
2023/09/17 11:43:29;;;;;;;;;;;22.40;1.00;;;;;;4937090;29;19931;-59
2023/09/17 11:45:56;;;;;;;;;;;22.40;1.00;;;;;;4937219;29;20022;-58
2023/09/17 11:48:23;;;;;;;;;;;22.30;1.00;;;;;;4935833;29;19965;-59
2023/09/17 11:50:50;;;;;;;;;;;22.40;1.00;;;;;;4935489;29;19974;-58
2023/09/17 11:53:19;;;;;;;;;;;22.40;1.00;;;;;;4937413;29;19926;-58
2023/09/17 11:55:49;;;;;;;;;;;22.30;1.00;;;;;;4936619;29;19926;-67
2023/09/17 11:58:38;;;;;;;;;;;22.30;1.00;;;;;;5074040;23;19941;-60
2023/09/17 12:01:08;;;;;;;;;;;22.30;1.00;;;;;;4954824;29;20310;-59
2023/09/17 12:03:36;;;;;;;;;;;22.30;1.00;;;;;;4955433;29;20034;-59
2023/09/17 12:06:04;;;;;;;;;;;22.30;1.00;;;;;;4953070;29;19961;-60
2023/09/17 12:08:31;;;;;;;;;;;22.30;1.00;;;;;;4934801;29;20010;-60
2023/09/17 12:11:03;;;;;;;;;;;22.30;1.00;;;;;;4936585;29;19927;-59
2023/09/17 12:13:30;;;;;;;;;;;22.30;1.00;;;;;;4934317;29;20030;-60
2023/09/17 12:15:57;;;;;;;;;;;22.30;1.00;;;;;;4935926;29;19927;-60
2023/09/17 12:18:24;;;;;;;;;;;22.30;1.00;;;;;;4934916;29;19935;-60
2023/09/17 12:20:56;;;;;;;;;;;22.30;1.00;;;;;;4936507;29;20435;-60
2023/09/17 12:23:47;;;;;;;;;;;22.30;1.00;;;;;;4936402;29;19926;-60
2023/09/17 12:26:22;;;;;;;;;;;22.30;1.00;;;;;;4935854;29;20306;-60
2023/09/17 12:28:48;;;;;;;;;;;22.40;1.00;;;;;;4935103;29;20410;-60
2023/09/17 12:31:16;;;;;;;;;;;22.40;1.00;;;;;;4936103;29;19927;-60
2023/09/17 12:33:43;;;;;;;;;;;22.30;1.00;;;;;;4936169;29;19934;-58
2023/09/17 12:36:11;;;;;;;;;;;22.30;1.00;;;;;;4935383;29;19926;-60
2023/09/17 12:38:38;;;;;;;;;;;22.30;1.00;;;;;;4934351;29;20386;-59
2023/09/17 12:41:04;;;;;;;;;;;22.30;1.00;;;;;;4936517;29;20026;-60
2023/09/17 12:43:31;;;;;;;;;;;22.30;1.00;;;;;;4936432;29;20028;-59
2023/09/17 12:45:58;;;;;;;;;;;22.30;1.00;;;;;;4936175;29;20021;-60
2023/09/17 12:48:26;;;;;;;;;;;22.30;1.00;;;;;;4935446;29;19938;-60
2023/09/17 12:50:56;;;;;;;;;;;22.30;1.00;;;;;;4935861;29;20053;-58
2023/09/17 12:53:27;;;;;;;;;;;22.30;1.00;;;;;;4935962;29;19927;-59
2023/09/17 12:55:56;;;;;;;;;;;22.30;1.00;;;;;;4935403;29;19981;-60
2023/09/17 12:58:23;;;;;;;;;;;22.30;1.00;;;;;;4935292;29;19933;-57
2023/09/17 13:00:50;;;;;;;;;;;22.30;1.00;;;;;;4936097;29;19970;-66
2023/09/17 13:03:18;;;;;;;;;;;22.30;1.00;;;;;;4936077;29;19962;-59
2023/09/17 13:05:45;;;;;;;;;;;22.40;1.00;;;;;;4933312;29;19942;-60
2023/09/17 13:08:12;;;;;;;;;;;22.30;1.00;;;;;;4931972;29;20311;-60
2023/09/17 13:10:39;;;;;;;;;;;22.30;1.00;;;;;;4934783;29;19973;-60
2023/09/17 13:13:07;;;;;;;;;;;22.30;1.00;;;;;;4935661;29;19927;-59
2023/09/17 13:15:34;;;;;;;;;;;22.30;1.00;;;;;;4934932;29;20303;-59
2023/09/17 13:18:01;;;;;;;;;;;22.40;1.00;;;;;;4929907;29;20030;-60
2023/09/17 13:20:28;;;;;;;;;;;22.30;1.00;;;;;;4935307;29;19926;-60
2023/09/17 13:22:55;;;;;;;;;;;22.30;1.00;;;;;;4935225;29;19958;-60
2023/09/17 13:25:22;;;;;;;;;;;22.40;1.00;;;;;;4935390;29;19927;-60
2023/09/17 13:27:49;;;;;;;;;;;22.40;1.00;;;;;;4929781;29;19938;-60
2023/09/17 13:30:16;;;;;;;;;;;22.40;1.00;;;;;;4935252;29;20029;-60
2023/09/17 13:32:43;;;;;;;;;;;22.40;1.00;;;;;;4935168;29;19962;-60
2023/09/17 13:35:10;;;;;;;;;;;22.40;1.00;;;;;;4935294;29;19998;-60
2023/09/17 13:37:38;;;;;;;;;;;22.40;1.00;;;;;;4929471;29;19930;-60
2023/09/17 13:40:06;;;;;;;;;;;22.40;1.00;;;;;;4935203;29;20416;-58
2023/09/17 13:42:33;;;;;;;;;;;22.40;1.00;;;;;;4935404;29;19927;-60
2023/09/17 13:44:59;;;;;;;;;;;22.40;1.00;;;;;;4935389;29;20173;-60
2023/09/17 13:47:27;;;;;;;;;;;22.50;1.00;;;;;;4933763;29;20279;-60
2023/09/17 13:49:58;;;;;;;;;;;22.50;1.00;;;;;;4935202;29;20110;-60
2023/09/17 13:52:25;;;;;;;;;;;22.50;1.00;;;;;;4935038;29;19927;-57
2023/09/17 13:54:52;;;;;;;;;;;22.50;1.00;;;;;;4935138;29;19974;-60
2023/09/17 13:57:19;;;;;;;;;;;22.50;1.00;;;;;;4933948;29;19954;-60
2023/09/17 13:59:46;;;;;;;;;;;22.50;1.00;;;;;;4935531;29;19927;-60
2023/09/17 14:02:16;;;;;;;;;;;22.50;1.00;;;;;;4935018;29;20395;-67
2023/09/17 14:04:43;;;;;;;;;;;22.50;1.00;;;;;;4935211;29;19949;-60
2023/09/17 14:07:10;;;;;;;;;;;22.50;1.00;;;;;;4934312;29;20142;-60
2023/09/17 14:09:37;;;;;;;;;;;22.50;1.00;;;;;;4935211;29;19979;-61
2023/09/17 14:12:04;;;;;;;;;;;22.50;1.00;;;;;;4934889;29;20466;-60
2023/09/17 14:14:31;;;;;;;;;;;22.50;1.00;;;;;;4934921;29;20361;-60
2023/09/17 14:16:57;;;;;;;;;;;22.50;1.00;;;;;;4933581;29;20351;-60
2023/09/17 14:19:24;;;;;;;;;;;22.50;1.00;;;;;;4934946;29;19987;-60
2023/09/17 14:21:51;;;;;;;;;;;22.50;1.00;;;;;;4935208;29;19953;-60
2023/09/17 14:24:18;;;;;;;;;;;22.50;1.00;;;;;;4935278;29;19939;-60
2023/09/17 14:26:44;;;;;;;;;;;22.50;1.00;;;;;;4934228;29;19933;-60
2023/09/17 14:29:11;;;;;;;;;;;22.50;1.00;;;;;;4934595;29;19982;-60
2023/09/17 14:31:38;;;;;;;;;;;22.50;1.00;;;;;;4935439;29;20363;-60
2023/09/17 14:34:10;;;;;;;;;;;22.50;1.00;;;;;;4934994;29;19927;-60
2023/09/17 14:36:37;;;;;;;;;;;22.50;1.00;;;;;;5156709;23;19948;-59